Observations de surface / UK / EGBE

Québec | Canada | États-Unis | France | UK | Europe | Ailleurs

Affichage: Infos & localisation pour EGBE | Aide pour décoder les METARs

EGBE COVENTRY AIRPORT -- UK
Raw surface observations for station EGBE
EGBE 211650Z 07008KT 9000 SCT025 03/02 Q1025=
EGBE 211620Z 07006KT 9000 BKN029 04/02 Q1025=
EGBE 211550Z 07008KT 9000 BKN029 04/02 Q1025=
EGBE 211520Z 07008KT 9999 BKN028 04/02 Q1025=
EGBE 211450Z 08009KT 9999 BKN020 04/02 Q1026=
EGBE 211420Z 07009KT 9999 BKN020 04/02 Q1026=
EGBE 211350Z 07008KT 9999 BKN015 04/03 Q1026=
EGBE 211320Z 08010KT 9999 BKN015 04/03 Q1027=
EGBE 211250Z 08011KT 9999 SCT015 04/03 Q1027=
EGBE 211220Z 08011KT 9000 SCT012 04/03 Q1027=
EGBE 211150Z 08009KT 6000 BKN011 03/03 Q1028=
EGBE 211120Z 07008KT 040V100 4000 BR BKN009 03/03 Q1028=
EGBE 211050Z 06009KT 2000 BR BKN003 03/02 Q1028=
EGBE 211020Z 07007KT 1200 BR BKN002 02/02 Q1029=
EGBE 210950Z 05006KT 010V090 1200 BR BKN002 02/02 Q1029=
EGBE 210920Z 06007KT 1200 BR BKN002 02/01 Q1029=
EGBE 210850Z 36002KT 0500 FG VV/// 01/M00 Q1029=